Time;durP1;ratioP1;P1;durP2;ratioP2;P2;SDS_P1;SDS_P2;PMS_P1;PMS_P2;Temp;Humidity;BMP_temperature;BMP_pressure;BME280_temperature;BME280_humidity;BME280_pressure;Samples;Min_cycle;Max_cycle;Signal;HPM_P1;HPM_P2
2022/04/15 00:01:39;;;;;;;17.45;5.15;;;;;;;13.92;48.53;101272.28;5020411;28;20026;-79
2022/04/15 00:04:05;;;;;;;23.33;5.40;;;;;;;13.92;48.76;101269.56;5020603;28;20065;-79
2022/04/15 00:06:30;;;;;;;19.55;6.10;;;;;;;13.89;48.95;101269.81;5015134;28;20108;-80
2022/04/15 00:08:56;;;;;;;19.15;5.25;;;;;;;13.86;48.99;101267.38;5014673;28;20081;-79
2022/04/15 00:11:21;;;;;;;15.05;5.80;;;;;;;13.83;48.95;101278.47;5015336;28;20026;-79
2022/04/15 00:13:48;;;;;;;13.23;4.43;;;;;;;13.78;49.08;101272.59;4996969;28;20036;-80
2022/04/15 00:16:14;;;;;;;14.00;5.20;;;;;;;13.85;49.09;101275.63;5013972;28;20045;-79
2022/04/15 00:18:40;;;;;;;21.13;5.25;;;;;;;13.83;49.29;101275.75;5014024;28;20103;-79
2022/04/15 00:21:05;;;;;;;20.23;5.63;;;;;;;13.78;49.44;101261.78;5013926;28;20033;-79
2022/04/15 00:23:31;;;;;;;28.20;4.85;;;;;;;13.79;49.99;101268.88;5013891;28;20029;-78
2022/04/15 00:25:57;;;;;;;24.45;5.60;;;;;;;13.85;50.16;101267.53;5014160;28;20030;-78
2022/04/15 00:28:23;;;;;;;10.93;5.13;;;;;;;13.79;50.16;101268.88;5013907;28;20029;-78
2022/04/15 00:30:48;;;;;;;37.60;6.38;;;;;;;13.74;50.01;101264.84;5014004;28;20030;-78
2022/04/15 00:33:14;;;;;;;26.52;5.55;;;;;;;13.78;50.11;101269.88;4996639;28;20476;-77
2022/04/15 00:35:39;;;;;;;21.02;6.10;;;;;;;13.77;50.57;101270.88;5013832;28;20037;-78
2022/04/15 00:38:05;;;;;;;19.25;5.72;;;;;;;13.74;50.32;101271.13;5014054;28;20038;-78
2022/04/15 00:40:31;;;;;;;14.40;4.90;;;;;;;13.67;50.40;101251.00;5014303;28;20408;-78
2022/04/15 00:42:56;;;;;;;11.15;4.50;;;;;;;13.69;50.58;101259.00;5028572;28;20112;-78
2022/04/15 00:45:22;;;;;;;17.45;5.53;;;;;;;13.63;50.56;101257.66;5023592;28;20032;-77
2022/04/15 00:47:53;;;;;;;13.50;6.38;;;;;;;13.45;50.97;101259.22;5013783;28;20040;-79
2022/04/15 00:50:24;;;;;;;14.40;6.57;;;;;;;13.44;51.21;101265.59;5013790;28;20037;-78
2022/04/15 00:52:52;;;;;;;10.93;5.60;;;;;;;13.51;51.06;101264.09;4995730;28;20116;-80
2022/04/15 00:55:21;;;;;;;15.30;5.03;;;;;;;13.52;51.38;101255.84;5013392;28;20040;-77
2022/04/15 00:57:53;;;;;;;15.85;6.32;;;;;;;13.55;51.22;101250.19;5013798;28;20029;-78
2022/04/15 01:00:20;;;;;;;18.05;5.90;;;;;;;13.57;51.38;101252.78;5013548;28;20030;-78
2022/04/15 01:02:46;;;;;;;14.38;6.90;;;;;;;13.59;50.98;101250.78;5013373;28;20073;-78
2022/04/15 01:05:14;;;;;;;15.27;6.03;;;;;;;13.52;51.08;101250.44;5013608;28;20344;-78
2022/04/15 01:07:41;;;;;;;24.48;7.00;;;;;;;13.55;51.18;101247.47;4996117;28;20033;-78
2022/04/15 01:10:12;;;;;;;18.48;6.28;;;;;;;13.54;51.29;101247.63;5013334;28;20112;-78
2022/04/15 01:12:44;;;;;;;24.92;5.57;;;;;;;13.57;51.15;101250.94;5013419;28;20562;-78
2022/04/15 01:15:13;;;;;;;16.67;5.85;;;;;;;13.58;51.10;101246.38;5013126;28;20528;-78
2022/04/15 01:17:39;;;;;;;16.20;5.78;;;;;;;13.59;51.21;101250.78;4995609;28;20049;-78
2022/04/15 01:20:08;;;;;;;23.02;6.13;;;;;;;13.59;51.23;101250.78;5013047;28;20396;-77
2022/04/15 01:22:44;;;;;;;14.90;5.82;;;;;;;13.63;51.22;101247.72;5013400;28;20030;-79
2022/04/15 01:25:14;;;;;;;14.50;6.03;;;;;;;13.62;50.63;101239.72;5012900;28;20104;-78
2022/04/15 01:27:46;;;;;;;17.40;5.82;;;;;;;13.59;50.57;101230.03;5012923;28;20029;-79
2022/04/15 01:30:14;;;;;;;15.15;5.93;;;;;;;13.61;50.89;101238.00;5011930;28;20040;-79
2022/04/15 01:32:40;;;;;;;13.43;5.38;;;;;;;13.63;50.60;101244.16;5012878;28;20100;-80
2022/04/15 01:35:07;;;;;;;17.73;4.95;;;;;;;13.59;50.84;101237.28;5013148;28;20480;-77
2022/04/15 01:37:35;;;;;;;16.30;6.72;;;;;;;13.55;50.96;101233.97;5013157;28;20030;-77
2022/04/15 01:40:01;;;;;;;14.38;5.80;;;;;;;13.58;50.92;101230.16;5012821;28;20021;-80
2022/04/15 01:42:27;;;;;;;11.95;5.85;;;;;;;13.55;50.61;101222.28;5012778;28;20037;-79
2022/04/15 01:44:52;;;;;;;22.02;6.50;;;;;;;13.60;50.64;101241.72;5012440;28;20112;-78
2022/04/15 01:47:18;;;;;;;28.50;7.80;;;;;;;13.56;50.85;101232.13;5012883;28;20037;-78
2022/04/15 01:49:43;;;;;;;18.38;5.78;;;;;;;13.58;51.37;101230.16;5013036;28;20477;-78
2022/04/15 01:52:09;;;;;;;21.48;6.43;;;;;;;13.51;51.24;101231.66;4995158;28;20521;-78
2022/04/15 01:54:35;;;;;;;65.07;32.85;;;;;;;13.49;51.31;101217.41;5012890;28;20036;-77
2022/04/15 01:57:00;;;;;;;36.53;7.80;;;;;;;13.50;51.85;101232.66;4994856;28;20380;-78
2022/04/15 01:59:26;;;;;;;9.88;5.53;;;;;;;13.48;51.91;101221.97;5012246;28;20378;-77
2022/04/15 02:01:54;;;;;;;20.55;8.30;;;;;;;13.44;51.81;101225.06;5012620;28;20030;-78
2022/04/15 02:04:25;;;;;;;16.55;7.53;;;;;;;13.38;51.85;101218.31;5012386;28;20029;-77
2022/04/15 02:06:50;;;;;;;21.90;6.15;;;;;;;13.36;51.81;101212.16;5012602;28;20112;-78
2022/04/15 02:09:16;;;;;;;44.33;7.45;;;;;;;13.31;51.96;101218.94;5012380;28;20026;-78
2022/04/15 02:11:42;;;;;;;29.17;7.30;;;;;;;13.28;52.45;101209.25;5012673;28;20037;-78
2022/04/15 02:14:08;;;;;;;21.00;6.22;;;;;;;13.29;52.27;101210.13;5012562;28;20400;-78
2022/04/15 02:16:34;;;;;;;18.35;6.03;;;;;;;13.23;52.72;101205.25;5012706;28;20053;-78
2022/04/15 02:18:59;;;;;;;24.42;6.07;;;;;;;13.19;52.61;101203.75;5023920;28;20101;-78
2022/04/15 02:21:25;;;;;;;13.45;5.68;;;;;;;13.12;52.77;101203.41;5027695;28;20121;-78
2022/04/15 02:23:50;;;;;;;14.73;4.80;;;;;;;13.12;52.89;101191.78;5013305;28;20079;-78
2022/04/15 02:26:15;;;;;;;22.85;5.35;;;;;;;13.11;52.97;101201.72;5012349;28;20079;-78
2022/04/15 02:28:41;;;;;;;35.47;6.68;;;;;;;13.09;52.58;101195.56;5012397;28;20068;-78
2022/04/15 02:31:06;;;;;;;9.75;4.80;;;;;;;13.06;52.35;101202.06;5012458;28;20416;-78
2022/04/15 02:33:32;;;;;;;15.73;6.20;;;;;;;13.00;52.49;101199.84;5012483;28;20026;-78
2022/04/15 02:35:57;;;;;;;14.88;4.53;;;;;;;12.92;52.14;101190.69;5012120;28;20037;-78
2022/04/15 02:38:23;;;;;;;20.38;5.38;;;;;;;12.91;52.02;101189.81;5011890;28;20033;-78
2022/04/15 02:40:48;;;;;;;11.77;5.20;;;;;;;12.91;51.77;101192.50;5012263;28;20108;-78
2022/04/15 02:43:15;;;;;;;16.25;5.72;;;;;;;12.85;51.71;101187.63;5016099;28;20036;-78
2022/04/15 02:45:41;;;;;;;12.20;4.55;;;;;;;12.84;51.87;101194.00;5016061;28;20054;-79
2022/04/15 02:48:07;;;;;;;16.55;5.20;;;;;;;12.86;51.59;101196.56;5016270;28;20445;-80
2022/04/15 02:50:32;;;;;;;9.40;4.90;;;;;;;12.87;51.08;101195.59;5016332;28;20026;-77
2022/04/15 02:52:59;;;;;;;14.07;4.47;;;;;;;12.79;51.00;101190.81;5016111;28;20389;-77
2022/04/15 02:55:25;;;;;;;11.73;4.93;;;;;;;12.76;51.51;101185.66;5016285;28;20034;-78
2022/04/15 02:57:51;;;;;;;17.13;5.55;;;;;;;12.82;52.07;101187.88;5015809;28;20108;-78
2022/04/15 03:00:17;;;;;;;38.28;14.05;;;;;;;12.80;51.60;101192.53;5015789;28;20491;-80
2022/04/15 03:02:43;;;;;;;12.40;6.25;;;;;;;12.80;51.94;101192.53;5016082;28;20036;-78
2022/04/15 03:05:09;;;;;;;21.60;7.00;;;;;;;12.73;51.66;101194.03;5016101;28;20026;-79
2022/04/15 03:07:36;;;;;;;16.33;8.10;;;;;;;12.69;51.77;101184.44;5016155;28;20083;-82
2022/04/15 03:10:02;;;;;;;15.65;7.88;;;;;;;12.76;51.51;101201.00;4999272;28;20117;-78
2022/04/15 03:12:27;;;;;;;23.25;8.55;;;;;;;12.72;51.84;101195.00;4998308;28;20412;-77
2022/04/15 03:14:53;;;;;;;20.35;8.65;;;;;;;12.70;51.69;101196.97;5016037;28;20053;-79
2022/04/15 03:17:19;;;;;;;28.08;11.95;;;;;;;12.68;52.18;101207.03;5015552;28;20062;-78
2022/04/15 03:19:45;;;;;;;18.55;9.27;;;;;;;12.64;52.38;101194.75;5015152;28;20030;-78
2022/04/15 03:22:10;;;;;;;25.27;8.48;;;;;;;12.67;52.45;101212.53;5015364;28;20475;-80
2022/04/15 03:24:36;;;;;;;24.75;9.80;;;;;;;12.65;52.91;101207.28;5015856;28;20045;-78
2022/04/15 03:27:01;;;;;;;18.25;8.25;;;;;;;12.61;53.00;101211.19;5015277;28;20034;-78
2022/04/15 03:29:27;;;;;;;24.67;8.70;;;;;;;12.61;52.49;101208.50;5015467;28;20033;-77
2022/04/15 03:31:52;;;;;;;25.08;9.73;;;;;;;12.54;53.12;101207.28;5014970;28;20476;-78
2022/04/15 03:34:17;;;;;;;20.67;9.35;;;;;;;12.52;53.51;101204.72;5015205;28;20433;-78
2022/04/15 03:36:45;;;;;;;33.15;8.80;;;;;;;12.54;53.48;101215.38;5015123;28;20480;-79
2022/04/15 03:39:10;;;;;;;54.58;8.80;;;;;;;12.61;53.28;101208.50;5015447;28;20057;-77
2022/04/15 03:41:36;;;;;;;37.10;13.23;;;;;;;12.57;53.17;101217.00;5015387;28;20112;-78
2022/04/15 03:44:01;;;;;;;77.68;22.23;;;;;;;12.55;53.92;101214.41;5015440;28;20032;-78
2022/04/15 03:46:27;;;;;;;44.45;20.10;;;;;;;12.56;53.76;101216.13;5015240;28;20389;-78
2022/04/15 03:48:52;;;;;;;30.63;10.27;;;;;;;12.48;54.08;101207.75;5015865;28;20036;-78
2022/04/15 03:51:17;;;;;;;31.25;9.35;;;;;;;12.42;54.25;101208.25;4998233;28;20034;-78
2022/04/15 03:53:43;;;;;;;25.92;8.50;;;;;;;12.45;54.36;101225.06;5014860;28;20026;-79
2022/04/15 03:56:08;;;;;;;37.67;10.30;;;;;;;12.41;54.18;101223.63;5027284;28;20036;-78
2022/04/15 03:58:35;;;;;;;24.20;8.45;;;;;;;12.41;53.80;101217.34;5021053;28;20034;-78
2022/04/15 04:01:01;;;;;;;24.27;9.50;;;;;;;12.43;53.11;101215.38;5015212;28;20083;-78
2022/04/15 04:03:26;;;;;;;36.83;10.07;;;;;;;12.40;53.52;101221.03;5014885;28;20113;-78
2022/04/15 04:05:52;;;;;;;57.90;11.05;;;;;;;12.41;54.22;101222.75;5015627;28;20085;-78
2022/04/15 04:08:19;;;;;;;32.80;12.35;;;;;;;12.46;53.91;101220.53;5015385;28;20026;-78
2022/04/15 04:10:44;;;;;;;38.10;9.82;;;;;;;12.46;53.91;101216.00;4998201;28;20404;-85
2022/04/15 04:13:10;;;;;;;39.80;11.45;;;;;;;12.50;53.56;101213.91;5019146;28;20038;-85
2022/04/15 04:15:36;;;;;;;55.53;13.00;;;;;;;12.52;53.58;101214.66;5022172;28;20116;-85
2022/04/15 04:18:02;;;;;;;51.70;12.82;;;;;;;12.57;54.20;101215.13;5016610;28;20033;-85
2022/04/15 04:20:28;;;;;;;82.25;15.75;;;;;;;12.55;54.18;101206.31;5016658;28;20455;-84
2022/04/15 04:22:53;;;;;;;100.10;15.02;;;;;;;12.64;54.28;101215.50;4998344;28;20034;-86
2022/04/15 04:25:21;;;;;;;54.60;13.20;;;;;;;12.63;54.22;101214.63;4999475;28;20030;-85
2022/04/15 04:27:48;;;;;;;54.28;13.30;;;;;;;12.59;54.11;101215.88;5030918;28;20033;-86
2022/04/15 04:30:14;;;;;;;84.78;17.33;;;;;;;12.62;54.24;101207.53;5015230;28;20100;-83
2022/04/15 04:32:49;;;;;;;70.85;15.27;;;;;;;12.59;54.45;101205.09;5015710;28;20107;-85
2022/04/15 04:35:19;;;;;;;65.22;14.80;;;;;;;12.66;54.31;101214.38;5014339;28;20034;-87
2022/04/15 04:37:45;;;;;;;45.55;16.98;;;;;;;12.68;54.69;101220.53;5030320;28;20052;-81
2022/04/15 04:40:11;;;;;;;43.22;15.98;;;;;;;12.72;54.47;101215.75;4997746;28;20449;-79
2022/04/15 04:42:38;;;;;;;66.80;15.20;;;;;;;12.77;53.45;101218.94;5014147;28;20032;-78
2022/04/15 04:45:05;;;;;;;29.60;10.20;;;;;;;12.77;54.26;101219.78;5031704;28;20034;-82
2022/04/15 04:47:31;;;;;;;70.68;14.82;;;;;;;12.88;54.31;101219.75;5002557;28;20085;-82
2022/04/15 04:49:57;;;;;;;90.68;23.50;;;;;;;12.91;54.57;101214.09;4998506;28;20111;-84
2022/04/15 04:52:26;;;;;;;79.85;18.75;;;;;;;13.05;54.68;101216.56;5014589;28;20033;-85
2022/04/15 04:54:52;;;;;;;99.07;18.58;;;;;;;13.21;54.54;101218.03;5014631;28;20400;-79
2022/04/15 04:57:17;;;;;;;91.60;25.13;;;;;;;13.26;54.51;101219.34;5013861;28;20116;-79
2022/04/15 04:59:43;;;;;;;104.55;34.53;;;;;;;13.33;54.38;101225.09;4980314;28;20038;-79
2022/04/15 05:02:10;;;;;;;114.35;29.10;;;;;;;13.43;54.13;101209.81;5013844;28;20033;-78
2022/04/15 05:04:37;;;;;;;127.55;26.00;;;;;;;13.51;54.42;101210.06;5012525;28;20028;-79
2022/04/15 05:07:04;;;;;;;118.43;30.70;;;;;;;13.61;54.04;101210.97;5029165;28;20117;-79
2022/04/15 05:09:31;;;;;;;133.13;31.95;;;;;;;13.78;53.79;101221.22;5022350;28;20030;-80
2022/04/15 05:11:56;;;;;;;125.90;31.52;;;;;;;13.88;53.76;101218.59;5013510;28;20026;-80
2022/04/15 05:14:22;;;;;;;111.55;30.63;;;;;;;14.01;53.48;101219.22;5013425;28;20042;-81
2022/04/15 05:16:47;;;;;;;82.68;26.25;;;;;;;14.13;53.16;101223.56;4994903;28;20092;-81
2022/04/15 05:19:15;;;;;;;74.35;24.08;;;;;;;14.18;51.85;101205.13;5012935;28;20030;-80
2022/04/15 05:21:41;;;;;;;66.75;21.05;;;;;;;14.41;50.65;101222.06;5012641;28;20092;-79
2022/04/15 05:24:08;;;;;;;41.42;16.85;;;;;;;14.54;49.57;101226.28;5012579;28;20472;-79
2022/04/15 05:26:34;;;;;;;58.25;15.27;;;;;;;14.55;48.51;101213.59;4996519;28;20026;-79
2022/04/15 05:29:00;;;;;;;39.10;12.63;;;;;;;14.71;47.89;101222.03;5012740;28;20032;-79
2022/04/15 05:31:26;;;;;;;39.63;11.80;;;;;;;14.85;47.50;101224.41;5012695;28;20100;-79
2022/04/15 05:33:51;;;;;;;55.42;14.02;;;;;;;14.93;47.11;101219.13;5030894;28;20459;-79
2022/04/15 05:36:17;;;;;;;37.25;12.48;;;;;;;15.06;46.62;101224.31;5022428;28;20032;-80
2022/04/15 05:38:43;;;;;;;32.63;13.18;;;;;;;15.15;46.83;101216.19;5014434;28;20025;-79
2022/04/15 05:41:09;;;;;;;39.17;11.60;;;;;;;15.33;46.01;101216.38;5013640;28;20044;-79
2022/04/15 05:43:34;;;;;;;32.78;11.95;;;;;;;15.43;46.36;101211.81;4994302;28;20140;-79
2022/04/15 05:46:00;;;;;;;34.28;12.20;;;;;;;15.54;45.89;101214.41;5011856;28;20032;-79
2022/04/15 05:48:26;;;;;;;40.05;13.18;;;;;;;15.68;45.76;101218.56;4994758;28;20403;-79
2022/04/15 05:50:53;;;;;;;48.42;13.30;;;;;;;15.79;45.38;101212.97;4994628;28;20025;-80
2022/04/15 05:53:21;;;;;;;45.88;12.85;;;;;;;15.80;44.72;101214.69;4994225;28;20566;-79
2022/04/15 05:55:46;;;;;;;42.22;13.02;;;;;;;15.93;44.82;101223.38;5011734;28;20033;-80
2022/04/15 05:58:13;;;;;;;42.05;11.63;;;;;;;15.97;44.90;101222.09;5011843;28;20029;-79
2022/04/15 06:00:39;;;;;;;51.97;14.68;;;;;;;16.05;45.08;101207.81;5011491;28;20037;-79
2022/04/15 06:03:09;;;;;;;53.22;12.82;;;;;;;16.18;44.87;101222.75;4993952;28;20524;-79
2022/04/15 06:05:37;;;;;;;49.35;14.20;;;;;;;16.28;44.90;101220.91;5011952;28;20068;-81
2022/04/15 06:08:02;;;;;;;55.55;14.02;;;;;;;16.35;44.65;101223.88;4994057;28;20030;-78
2022/04/15 06:10:30;;;;;;;46.25;16.52;;;;;;;16.40;44.71;101220.72;5011484;28;20033;-79
2022/04/15 06:13:08;;;;;;;69.22;17.83;;;;;;;16.53;44.96;101221.25;4977574;28;20420;-79
2022/04/15 06:15:36;;;;;;;55.60;17.77;;;;;;;16.62;44.64;101223.97;4995290;28;20050;-81
2022/04/15 06:18:02;;;;;;;93.55;27.88;;;;;;;16.71;44.55;101216.78;5011400;28;20414;-79
2022/04/15 06:20:30;;;;;;;66.75;19.33;;;;;;;16.83;44.77;101224.56;5011247;28;20506;-80
2022/04/15 06:22:58;;;;;;;61.38;19.02;;;;;;;16.96;44.57;101221.50;4977771;28;20029;-81
2022/04/15 06:25:27;;;;;;;74.68;18.92;;;;;;;17.07;44.44;101229.44;5011154;28;20488;-80
2022/04/15 06:27:55;;;;;;;83.22;19.73;;;;;;;17.13;43.88;101228.84;4994327;28;20056;-80
2022/04/15 06:30:24;;;;;;;52.35;16.85;;;;;;;17.26;43.79;101229.34;5011269;28;20478;-79
2022/04/15 06:32:51;;;;;;;53.42;17.05;;;;;;;17.31;43.48;101229.72;5011521;28;20033;-81
2022/04/15 06:35:17;;;;;;;71.57;18.17;;;;;;;17.35;43.69;101227.56;5011418;28;20022;-81
2022/04/15 06:37:42;;;;;;;68.15;17.40;;;;;;;17.46;43.80;101223.78;5011343;28;20045;-79
2022/04/15 06:40:08;;;;;;;39.10;9.75;;;;;;;17.58;43.33;101228.00;4993103;28;20105;-80
2022/04/15 06:42:35;;;;;;;26.42;11.65;;;;;;;17.69;42.10;101225.03;5011604;28;20026;-80
2022/04/15 06:45:01;;;;;;;43.00;10.95;;;;;;;17.81;41.09;101229.22;4993460;28;20022;-81
2022/04/15 06:47:26;;;;;;;44.30;11.98;;;;;;;17.92;41.16;101228.97;5011281;28;20041;-80
2022/04/15 06:49:53;;;;;;;27.83;11.77;;;;;;;18.01;40.61;101228.03;4993339;28;20072;-80
2022/04/15 06:52:18;;;;;;;86.63;13.25;;;;;;;18.10;40.60;101229.81;5010775;28;20030;-80
2022/04/15 06:54:45;;;;;;;34.70;8.43;;;;;;;18.18;39.79;101227.16;5010944;28;20030;-80
2022/04/15 06:57:12;;;;;;;22.50;8.02;;;;;;;18.28;39.51;101230.63;4993704;28;20408;-81
2022/04/15 06:59:38;;;;;;;28.77;7.45;;;;;;;18.40;39.09;101236.66;4993474;28;20100;-80
2022/04/15 07:02:05;;;;;;;46.33;8.13;;;;;;;18.51;38.99;101235.56;5010806;28;20042;-79
2022/04/15 07:04:34;;;;;;;42.45;15.57;;;;;;;18.42;41.36;101227.31;4993361;28;20040;-79
2022/04/15 07:07:00;;;;;;;54.83;18.65;;;;;;;18.36;42.84;101219.78;5012579;28;20104;-81
2022/04/15 07:09:25;;;;;;;50.35;17.25;;;;;;;18.18;44.68;101242.63;4993748;28;20084;-82
2022/04/15 07:11:54;;;;;;;58.80;17.40;;;;;;;18.19;44.97;101234.31;5032474;28;20025;-79
2022/04/15 07:14:21;;;;;;;50.72;18.33;;;;;;;18.07;43.96;101235.56;4998394;28;20038;-80
2022/04/15 07:16:49;;;;;;;48.17;16.05;;;;;;;17.97;43.58;101234.81;5010666;28;20053;-81
2022/04/15 07:19:16;;;;;;;40.30;14.40;;;;;;;17.71;43.23;101225.72;5010894;28;20030;-80
2022/04/15 07:21:45;;;;;;;42.83;16.02;;;;;;;17.61;42.92;101234.00;5010351;28;20038;-80
2022/04/15 07:24:24;;;;;;;41.55;16.30;;;;;;;17.72;43.00;101227.44;4996502;28;20045;-80
2022/04/15 07:26:49;;;;;;;35.63;17.20;;;;;;;17.82;41.96;101239.09;5010996;28;20126;-81
2022/04/15 07:29:16;;;;;;;37.03;13.70;;;;;;;17.84;41.88;101239.78;5013800;28;20041;-80
2022/04/15 07:31:42;;;;;;;56.00;16.42;;;;;;;17.87;42.59;101234.91;4996240;28;20080;-78
2022/04/15 07:34:08;;;;;;;40.90;15.52;;;;;;;17.98;41.65;101236.50;5014475;28;20101;-81
2022/04/15 07:39:08;;;;;;;48.40;11.50;;;;;;;17.86;40.58;101243.19;4996947;28;20040;-80
2022/04/15 07:41:36;;;;;;;27.70;12.88;;;;;;;17.80;41.70;101235.66;5013948;28;20034;-81
2022/04/15 07:44:10;;;;;;;34.13;12.75;;;;;;;17.75;41.94;101240.72;4996578;28;20048;-81
2022/04/15 07:46:38;;;;;;;36.17;12.02;;;;;;;17.73;41.67;101243.63;4996313;28;20049;-81
2022/04/15 07:49:04;;;;;;;34.70;10.43;;;;;;;17.76;41.01;101237.00;5014470;28;20028;-80
2022/04/15 07:51:32;;;;;;;18.20;8.52;;;;;;;17.80;40.48;101232.94;4995945;28;20562;-80
2022/04/15 07:53:57;;;;;;;28.98;9.35;;;;;;;17.78;40.27;101234.97;5013991;28;20026;-80
2022/04/15 07:56:23;;;;;;;24.50;8.52;;;;;;;17.87;40.11;101239.47;5013860;28;20471;-80
2022/04/15 07:58:53;;;;;;;23.27;8.05;;;;;;;17.92;39.84;101229.81;4995194;28;20126;-81
2022/04/15 08:01:19;;;;;;;19.35;7.05;;;;;;;18.09;39.65;101241.72;4996132;28;20113;-80
2022/04/15 08:03:48;;;;;;;24.77;6.88;;;;;;;18.16;39.36;101229.19;4996898;28;20471;-81
2022/04/15 08:06:15;;;;;;;22.42;7.78;;;;;;;18.14;39.59;101236.63;5013833;28;20032;-81
2022/04/15 08:08:43;;;;;;;21.85;8.07;;;;;;;18.15;39.93;101241.09;4996034;28;20068;-80
2022/04/15 08:11:09;;;;;;;42.75;8.73;;;;;;;18.27;39.24;101231.63;5012881;28;20049;-81
2022/04/15 08:13:37;;;;;;;18.85;6.50;;;;;;;18.41;39.00;101228.31;4996385;28;20119;-81
2022/04/15 08:16:03;;;;;;;17.27;5.25;;;;;;;18.53;38.57;101220.75;4996258;28;20080;-79
2022/04/15 08:18:30;;;;;;;20.63;5.40;;;;;;;18.55;38.22;101229.63;5013460;28;20026;-81
2022/04/15 08:20:56;;;;;;;16.60;6.20;;;;;;;18.67;38.26;101219.31;4996106;28;20045;-80
2022/04/15 08:23:23;;;;;;;17.77;6.03;;;;;;;18.72;37.99;101209.63;4995891;28;20492;-80
2022/04/15 08:25:49;;;;;;;26.15;5.78;;;;;;;18.85;37.42;101206.44;5014017;28;20382;-80
2022/04/15 08:28:15;;;;;;;16.42;4.32;;;;;;;18.82;37.15;101212.22;4996365;28;20034;-80
2022/04/15 08:30:40;;;;;;;12.77;5.00;;;;;;;18.93;36.99;101209.19;5013733;28;20455;-80
2022/04/15 08:33:07;;;;;;;11.00;4.00;;;;;;;18.80;37.05;101206.09;5013117;28;20108;-79
2022/04/15 08:35:34;;;;;;;9.65;4.40;;;;;;;18.70;36.79;101205.34;5013313;28;20101;-80
2022/04/15 08:38:02;;;;;;;16.63;4.75;;;;;;;18.73;36.69;101215.94;5013139;28;20108;-81
2022/04/15 08:40:32;;;;;;;30.08;6.07;;;;;;;18.87;37.18;101207.13;4995374;28;20113;-82
2022/04/15 08:43:03;;;;;;;8.02;4.20;;;;;;;18.88;36.35;101197.94;4996376;28;20034;-81
2022/04/15 08:45:30;;;;;;;11.20;5.35;;;;;;;18.78;36.51;101203.50;4995658;28;20034;-80
2022/04/15 08:48:00;;;;;;;19.00;6.13;;;;;;;18.69;36.75;101200.91;4996380;28;20065;-81
2022/04/15 08:50:31;;;;;;;23.52;5.20;;;;;;;18.44;36.87;101198.03;4995670;28;20026;-80
2022/04/15 08:52:58;;;;;;;12.52;5.78;;;;;;;18.61;37.15;101195.44;5012664;28;20412;-80
2022/04/15 08:55:25;;;;;;;15.68;5.80;;;;;;;18.73;37.50;101199.56;4978912;28;20030;-80
2022/04/15 08:57:52;;;;;;;15.68;5.03;;;;;;;18.85;36.95;101193.66;4979173;28;20527;-80
2022/04/15 09:00:19;;;;;;;20.30;4.88;;;;;;;18.96;36.77;101190.63;4994873;28;20018;-80
2022/04/15 09:02:45;;;;;;;18.42;5.32;;;;;;;18.98;36.60;101187.75;4995096;28;20026;-81
2022/04/15 09:05:13;;;;;;;11.45;5.05;;;;;;;18.91;36.13;101181.25;5012270;28;20032;-81
2022/04/15 09:07:39;;;;;;;13.27;6.78;;;;;;;19.05;36.84;101182.50;5012697;28;20176;-81
2022/04/15 09:10:06;;;;;;;17.23;5.35;;;;;;;19.12;37.41;101173.47;5013142;28;20524;-81
2022/04/15 09:12:35;;;;;;;17.85;7.47;;;;;;;19.16;40.84;101165.81;4994406;28;20101;-81
2022/04/15 09:15:12;;;;;;;26.73;9.18;;;;;;;19.12;41.62;101167.16;5012478;28;20045;-81
2022/04/15 09:17:40;;;;;;;20.85;7.95;;;;;;;19.08;41.13;101166.63;5012682;28;20022;-80
2022/04/15 09:20:08;;;;;;;9.93;5.72;;;;;;;19.22;40.85;101174.19;5012313;28;20049;-81
2022/04/15 09:22:33;;;;;;;13.98;6.03;;;;;;;19.25;40.34;101162.94;4994863;28;20033;-81
2022/04/15 09:24:59;;;;;;;21.40;6.28;;;;;;;19.26;40.49;101161.94;5012898;28;20029;-81
2022/04/15 09:27:26;;;;;;;18.42;5.85;;;;;;;19.31;40.88;101162.25;4994443;28;20068;-80
2022/04/15 09:29:54;;;;;;;26.27;6.78;;;;;;;19.10;41.86;101161.88;5012372;28;20056;-79
2022/04/15 09:32:22;;;;;;;19.55;6.55;;;;;;;19.02;40.91;101173.63;5012518;28;20148;-80
2022/04/15 09:35:00;;;;;;;19.25;5.63;;;;;;;19.15;39.31;101155.91;5012364;28;20021;-79
2022/04/15 09:37:34;;;;;;;19.27;6.45;;;;;;;19.15;39.87;101154.03;4994925;28;20040;-79
2022/04/15 09:40:05;;;;;;;21.40;5.38;;;;;;;19.06;39.11;101154.19;5012146;28;20121;-79
2022/04/15 09:42:36;;;;;;;10.20;4.53;;;;;;;19.03;37.49;101147.22;5012740;28;20053;-79
2022/04/15 09:45:21;;;;;;;17.25;5.03;;;;;;;19.15;37.79;101143.13;4978757;28;20128;-79
2022/04/15 09:48:13;;;;;;;9.27;4.50;;;;;;;19.12;36.58;101151.66;5011850;28;20117;-79
2022/04/15 09:50:42;;;;;;;12.50;4.45;;;;;;;19.05;36.91;101139.69;4990462;28;20034;-79
2022/04/15 09:53:20;;;;;;;17.45;4.88;;;;;;;19.03;37.23;101144.47;5012570;28;20022;-81
2022/04/15 09:55:53;;;;;;;17.08;5.43;;;;;;;19.18;36.74;101145.53;5012148;28;20045;-80
2022/04/15 09:58:28;;;;;;;6.65;3.65;;;;;;;19.31;36.08;101145.91;5012340;28;20060;-80
2022/04/15 10:00:58;;;;;;;8.85;4.00;;;;;;;19.28;35.78;101139.94;4994096;28;20049;-81
2022/04/15 10:03:25;;;;;;;12.40;4.43;;;;;;;19.23;35.91;101128.69;5011260;28;20030;-81
2022/04/15 10:05:54;;;;;;;17.88;4.75;;;;;;;19.31;35.43;101126.81;5012358;28;20025;-79
2022/04/15 10:08:25;;;;;;;6.97;4.50;;;;;;;19.45;35.64;101131.63;4994786;28;20030;-79
2022/04/15 10:10:52;;;;;;;13.40;3.78;;;;;;;19.52;35.43;101127.19;5017344;28;20078;-81
2022/04/15 10:13:20;;;;;;;22.25;4.30;;;;;;;19.62;35.08;101110.66;5001310;28;20029;-81
2022/04/15 10:15:47;;;;;;;15.15;4.50;;;;;;;19.66;34.73;101108.44;5010606;28;20061;-79
2022/04/15 10:18:14;;;;;;;16.23;3.55;;;;;;;19.76;34.84;101107.22;5011681;28;20132;-79
2022/04/15 10:20:42;;;;;;;12.75;4.60;;;;;;;19.83;34.68;101104.66;4977990;28;20034;-80
2022/04/15 10:23:11;;;;;;;15.38;3.80;;;;;;;19.91;34.55;101091.84;4995169;28;20045;-79
2022/04/15 10:25:46;;;;;;;14.63;3.55;;;;;;;19.95;34.54;101095.06;5014015;28;20101;-80
2022/04/15 10:28:20;;;;;;;16.77;4.13;;;;;;;20.07;34.18;101094.53;4980581;28;20172;-80
2022/04/15 10:30:51;;;;;;;9.50;3.67;;;;;;;20.23;34.18;101096.38;5011850;28;20396;-79
2022/04/15 10:33:31;;;;;;;21.02;5.32;;;;;;;20.28;34.05;101098.59;5011570;28;20485;-80
2022/04/15 10:36:30;;;;;;;16.10;4.57;;;;;;;20.14;34.62;101088.38;5011483;28;20062;-80
2022/04/15 10:39:10;;;;;;;18.02;4.57;;;;;;;20.30;35.24;101094.69;5011167;28;20030;-80
2022/04/15 10:41:53;;;;;;;13.00;3.97;;;;;;;20.07;36.25;101094.53;4994510;28;20520;-80
2022/04/15 10:44:28;;;;;;;15.68;3.47;;;;;;;20.25;36.49;101086.09;5011500;28;20030;-80
2022/04/15 10:46:58;;;;;;;10.70;3.85;;;;;;;20.44;36.69;101091.19;5012752;28;20050;-80
2022/04/15 10:49:33;;;;;;;32.05;6.30;;;;;;;20.50;36.71;101074.09;5011664;28;20045;-80
2022/04/15 10:52:21;;;;;;;15.65;4.43;;;;;;;20.65;37.10;101082.38;4992439;28;20029;-80
2022/04/15 10:54:56;;;;;;;15.15;5.57;;;;;;;20.67;36.80;101084.94;4993595;28;20064;-80
2022/04/15 10:57:29;;;;;;;16.83;4.47;;;;;;;20.34;37.07;101065.94;5011578;28;20054;-81
2022/04/15 11:02:49;;;;;;;11.77;3.70;;;;;;;20.01;38.21;101072.53;4997227;28;20109;-81
2022/04/15 11:05:44;;;;;;;13.40;4.83;;;;;;;20.21;38.05;101076.56;4997828;28;20042;-80
2022/04/15 11:08:11;;;;;;;9.75;4.70;;;;;;;20.41;38.45;101072.41;5014937;28;20037;-80
2022/04/15 11:11:07;;;;;;;25.25;6.25;;;;;;;20.40;38.43;101073.44;5015305;28;20468;-80
2022/04/15 11:13:45;;;;;;;14.00;6.47;;;;;;;20.25;38.75;101074.31;4997831;28;20029;-80
2022/04/15 11:16:13;;;;;;;26.42;5.35;;;;;;;20.13;38.00;101065.66;5016938;28;20500;-80
2022/04/15 11:19:00;;;;;;;18.90;5.47;;;;;;;20.20;38.26;101065.81;5018267;28;20496;-80
2022/04/15 11:21:30;;;;;;;22.58;4.90;;;;;;;20.09;38.04;101059.69;4999235;28;20037;-79
2022/04/15 11:24:07;;;;;;;21.10;4.68;;;;;;;20.18;38.32;101052.34;5015537;28;20041;-80